sensor_id;sensor_type;location;lat;lon;timestamp;pressure;altitude;pressure_sealevel;temperature;humidity
71638;BME280;59485;43.542;-5.676;2023-05-12T00:00:55;102161.59;;;12.19;nan
71638;BME280;59485;43.542;-5.676;2023-05-12T00:03:24;102192.94;;;12.34;nan
71638;BME280;59485;43.542;-5.676;2023-05-12T00:05:50;102157.22;;;12.00;nan
71638;BME280;59485;43.542;-5.676;2023-05-12T00:08:16;102196.34;;;12.28;nan
71638;BME280;59485;43.542;-5.676;2023-05-12T00:10:41;102185.16;;;12.22;nan
71638;BME280;59485;43.542;-5.676;2023-05-12T00:13:07;102192.53;;;12.21;nan
71638;BME280;59485;43.542;-5.676;2023-05-12T00:15:34;102189.25;;;12.18;nan
71638;BME280;59485;43.542;-5.676;2023-05-12T00:18:00;102195.63;;;12.26;nan
71638;BME280;59485;43.542;-5.676;2023-05-12T00:20:29;102148.50;;;12.05;nan
71638;BME280;59485;43.542;-5.676;2023-05-12T00:22:54;102187.56;;;12.17;nan
71638;BME280;59485;43.542;-5.676;2023-05-12T00:25:20;102204.06;;;12.25;nan
71638;BME280;59485;43.542;-5.676;2023-05-12T00:27:45;102199.59;;;12.24;nan
71638;BME280;59485;43.542;-5.676;2023-05-12T00:30:11;102137.25;;;11.90;nan
71638;BME280;59485;43.542;-5.676;2023-05-12T00:32:37;102186.00;;;12.14;nan
71638;BME280;59485;43.542;-5.676;2023-05-12T00:35:02;102179.94;;;12.11;nan
71638;BME280;59485;43.542;-5.676;2023-05-12T00:37:28;102197.19;;;12.21;nan
71638;BME280;59485;43.542;-5.676;2023-05-12T00:39:53;102186.69;;;12.16;nan
71638;BME280;59485;43.542;-5.676;2023-05-12T00:42:19;102180.50;;;12.14;nan
71638;BME280;59485;43.542;-5.676;2023-05-12T00:44:45;102103.22;;;11.75;nan
71638;BME280;59485;43.542;-5.676;2023-05-12T00:47:12;102168.97;;;12.19;nan
71638;BME280;59485;43.542;-5.676;2023-05-12T00:49:38;102153.31;;;12.11;nan
71638;BME280;59485;43.542;-5.676;2023-05-12T00:52:07;102120.28;;;11.95;nan
71638;BME280;59485;43.542;-5.676;2023-05-12T00:54:33;102134.78;;;12.13;nan
71638;BME280;59485;43.542;-5.676;2023-05-12T00:56:59;102143.91;;;12.22;nan
71638;BME280;59485;43.542;-5.676;2023-05-12T00:59:25;102141.31;;;12.20;nan
71638;BME280;59485;43.542;-5.676;2023-05-12T01:01:51;102084.03;;;11.91;nan
71638;BME280;59485;43.542;-5.676;2023-05-12T01:04:17;102091.09;;;11.94;nan
71638;BME280;59485;43.542;-5.676;2023-05-12T01:09:15;102125.69;;;12.21;nan
71638;BME280;59485;43.542;-5.676;2023-05-12T01:11:41;102114.84;;;12.11;nan
71638;BME280;59485;43.542;-5.676;2023-05-12T01:14:06;102104.00;;;12.10;nan
71638;BME280;59485;43.542;-5.676;2023-05-12T01:16:38;102102.28;;;12.09;nan
71638;BME280;59485;43.542;-5.676;2023-05-12T01:19:08;102081.28;;;11.91;nan
71638;BME280;59485;43.542;-5.676;2023-05-12T01:21:39;102105.72;;;12.02;nan
71638;BME280;59485;43.542;-5.676;2023-05-12T01:24:06;102075.44;;;11.86;nan
71638;BME280;59485;43.542;-5.676;2023-05-12T01:26:33;102085.41;;;11.87;nan
71638;BME280;59485;43.542;-5.676;2023-05-12T01:29:02;102099.50;;;11.92;nan
71638;BME280;59485;43.542;-5.676;2023-05-12T01:31:29;102096.75;;;11.92;nan
71638;BME280;59485;43.542;-5.676;2023-05-12T01:33:55;102084.00;;;11.83;nan
71638;BME280;59485;43.542;-5.676;2023-05-12T01:36:20;102105.16;;;11.91;nan
71638;BME280;59485;43.542;-5.676;2023-05-12T01:38:46;102094.84;;;11.85;nan
71638;BME280;59485;43.542;-5.676;2023-05-12T01:41:11;102088.47;;;11.84;nan
71638;BME280;59485;43.542;-5.676;2023-05-12T01:43:37;102083.81;;;11.77;nan
71638;BME280;59485;43.542;-5.676;2023-05-12T01:46:02;102079.38;;;11.84;nan
71638;BME280;59485;43.542;-5.676;2023-05-12T01:48:28;102076.63;;;11.84;nan
71638;BME280;59485;43.542;-5.676;2023-05-12T01:50:53;102081.09;;;11.85;nan
71638;BME280;59485;43.542;-5.676;2023-05-12T01:53:22;102069.06;;;11.78;nan
71638;BME280;59485;43.542;-5.676;2023-05-12T01:55:47;102067.34;;;11.77;nan
71638;BME280;59485;43.542;-5.676;2023-05-12T01:58:13;102043.03;;;11.56;nan
71638;BME280;59485;43.542;-5.676;2023-05-12T02:00:39;102017.78;;;11.44;nan
71638;BME280;59485;43.542;-5.676;2023-05-12T02:03:04;102069.78;;;11.80;nan
71638;BME280;59485;43.542;-5.676;2023-05-12T02:05:29;102026.69;;;11.46;nan
71638;BME280;59485;43.542;-5.676;2023-05-12T02:07:55;102040.97;;;11.58;nan
71638;BME280;59485;43.542;-5.676;2023-05-12T02:10:21;102037.38;;;11.57;nan
71638;BME280;59485;43.542;-5.676;2023-05-12T02:12:46;102031.72;;;11.59;nan
71638;BME280;59485;43.542;-5.676;2023-05-12T02:15:12;102051.81;;;11.68;nan
71638;BME280;59485;43.542;-5.676;2023-05-12T02:17:38;102010.34;;;11.37;nan
71638;BME280;59485;43.542;-5.676;2023-05-12T02:20:04;102051.63;;;11.61;nan
71638;BME280;59485;43.542;-5.676;2023-05-12T02:22:29;102023.22;;;11.36;nan
71638;BME280;59485;43.542;-5.676;2023-05-12T02:24:55;102053.69;;;11.59;nan
71638;BME280;59485;43.542;-5.676;2023-05-12T02:27:20;102043.69;;;11.50;nan
71638;BME280;59485;43.542;-5.676;2023-05-12T02:29:46;102056.28;;;11.60;nan
71638;BME280;59485;43.542;-5.676;2023-05-12T02:32:12;102048.47;;;11.48;nan
71638;BME280;59485;43.542;-5.676;2023-05-12T02:34:37;102054.16;;;11.54;nan
71638;BME280;59485;43.542;-5.676;2023-05-12T02:37:03;102031.81;;;11.41;nan
71638;BME280;59485;43.542;-5.676;2023-05-12T02:39:29;102051.09;;;11.57;nan
71638;BME280;59485;43.542;-5.676;2023-05-12T02:41:54;102059.03;;;11.60;nan
71638;BME280;59485;43.542;-5.676;2023-05-12T02:44:20;102033.56;;;11.50;nan
71638;BME280;59485;43.542;-5.676;2023-05-12T02:46:46;102048.00;;;11.52;nan
71638;BME280;59485;43.542;-5.676;2023-05-12T02:49:12;102030.78;;;11.42;nan
71638;BME280;59485;43.542;-5.676;2023-05-12T02:51:37;101986.09;;;11.24;nan
71638;BME280;59485;43.542;-5.676;2023-05-12T02:54:03;102040.66;;;11.61;nan
71638;BME280;59485;43.542;-5.676;2023-05-12T02:56:28;102032.88;;;11.48;nan
71638;BME280;59485;43.542;-5.676;2023-05-12T02:58:54;102054.72;;;11.66;nan
71638;BME280;59485;43.542;-5.676;2023-05-12T03:01:19;102057.50;;;11.74;nan
71638;BME280;59485;43.542;-5.676;2023-05-12T03:03:45;102030.16;;;11.56;nan
71638;BME280;59485;43.542;-5.676;2023-05-12T03:06:10;101982.84;;;11.28;nan
71638;BME280;59485;43.542;-5.676;2023-05-12T03:08:36;102036.69;;;11.63;nan
71638;BME280;59485;43.542;-5.676;2023-05-12T03:11:02;102041.50;;;11.61;nan
71638;BME280;59485;43.542;-5.676;2023-05-12T03:13:27;102011.94;;;11.47;nan
71638;BME280;59485;43.542;-5.676;2023-05-12T03:15:53;102014.19;;;11.52;nan
71638;BME280;59485;43.542;-5.676;2023-05-12T03:18:18;101994.09;;;11.43;nan
71638;BME280;59485;43.542;-5.676;2023-05-12T03:20:44;102012.31;;;11.52;nan
71638;BME280;59485;43.542;-5.676;2023-05-12T03:23:09;102029.13;;;11.57;nan
71638;BME280;59485;43.542;-5.676;2023-05-12T03:25:35;102021.06;;;11.56;nan
71638;BME280;59485;43.542;-5.676;2023-05-12T03:28:01;102030.16;;;11.56;nan
71638;BME280;59485;43.542;-5.676;2023-05-12T03:30:27;102024.63;;;11.48;nan
71638;BME280;59485;43.542;-5.676;2023-05-12T03:32:53;102027.22;;;11.50;nan
71638;BME280;59485;43.542;-5.676;2023-05-12T03:35:19;102022.00;;;11.39;nan
71638;BME280;59485;43.542;-5.676;2023-05-12T03:37:44;102000.84;;;11.23;nan
71638;BME280;59485;43.542;-5.676;2023-05-12T03:40:10;102024.44;;;11.42;nan
71638;BME280;59485;43.542;-5.676;2023-05-12T03:42:36;102000.56;;;11.34;nan
71638;BME280;59485;43.542;-5.676;2023-05-12T03:45:01;101984.69;;;11.20;nan
71638;BME280;59485;43.542;-5.676;2023-05-12T03:47:27;102017.53;;;11.38;nan
71638;BME280;59485;43.542;-5.676;2023-05-12T03:49:52;102015.69;;;11.46;nan
71638;BME280;59485;43.542;-5.676;2023-05-12T03:52:18;101985.59;;;11.28;nan
71638;BME280;59485;43.542;-5.676;2023-05-12T03:54:43;102003.16;;;11.36;nan
71638;BME280;59485;43.542;-5.676;2023-05-12T03:57:11;101991.94;;;11.29;nan
71638;BME280;59485;43.542;-5.676;2023-05-12T03:59:36;102006.22;;;11.33;nan
71638;BME280;59485;43.542;-5.676;2023-05-12T04:02:02;101983.66;;;11.13;nan
71638;BME280;59485;43.542;-5.676;2023-05-12T04:04:28;101973.00;;;11.10;nan
71638;BME280;59485;43.542;-5.676;2023-05-12T04:06:53;102030.41;;;11.37;nan
71638;BME280;59485;43.542;-5.676;2023-05-12T04:09:19;101963.50;;;10.96;nan
71638;BME280;59485;43.542;-5.676;2023-05-12T04:11:45;102013.78;;;11.39;nan
71638;BME280;59485;43.542;-5.676;2023-05-12T04:14:11;102007.94;;;11.34;nan
71638;BME280;59485;43.542;-5.676;2023-05-12T04:16:36;102002.59;;;11.32;nan
71638;BME280;59485;43.542;-5.676;2023-05-12T04:19:02;101997.81;;;11.34;nan
71638;BME280;59485;43.542;-5.676;2023-05-12T04:21:28;102013.94;;;11.37;nan
71638;BME280;59485;43.542;-5.676;2023-05-12T04:23:53;102004.84;;;11.37;nan
71638;BME280;59485;43.542;-5.676;2023-05-12T04:26:19;102008.28;;;11.39;nan
71638;BME280;59485;43.542;-5.676;2023-05-12T04:28:45;101997.81;;;11.34;nan
71638;BME280;59485;43.542;-5.676;2023-05-12T04:31:10;101950.38;;;11.08;nan
71638;BME280;59485;43.542;-5.676;2023-05-12T04:33:36;101998.88;;;11.41;nan
71638;BME280;59485;43.542;-5.676;2023-05-12T04:36:02;101936.13;;;11.12;nan
71638;BME280;59485;43.542;-5.676;2023-05-12T04:38:27;101960.88;;;11.20;nan
71638;BME280;59485;43.542;-5.676;2023-05-12T04:40:57;101976.19;;;11.31;nan
71638;BME280;59485;43.542;-5.676;2023-05-12T04:43:23;101907.75;;;10.87;nan
71638;BME280;59485;43.542;-5.676;2023-05-12T04:45:51;101987.69;;;11.35;nan
71638;BME280;59485;43.542;-5.676;2023-05-12T04:48:20;101941.97;;;11.09;nan
71638;BME280;59485;43.542;-5.676;2023-05-12T04:50:46;101980.47;;;11.25;nan
71638;BME280;59485;43.542;-5.676;2023-05-12T04:53:14;101966.50;;;11.19;nan
71638;BME280;59485;43.542;-5.676;2023-05-12T04:55:40;101986.44;;;11.21;nan
71638;BME280;59485;43.542;-5.676;2023-05-12T04:58:05;101970.34;;;11.26;nan
71638;BME280;59485;43.542;-5.676;2023-05-12T05:00:32;101906.81;;;10.71;nan
71638;BME280;59485;43.542;-5.676;2023-05-12T05:02:57;101996.84;;;10.58;nan
71638;BME280;59485;43.542;-5.676;2023-05-12T05:05:23;102002.44;;;10.48;nan
71638;BME280;59485;43.542;-5.676;2023-05-12T05:07:49;101931.66;;;10.00;nan
71638;BME280;59485;43.542;-5.676;2023-05-12T05:10:14;101946.22;;;10.18;nan
71638;BME280;59485;43.542;-5.676;2023-05-12T05:12:40;101949.94;;;10.17;nan
71638;BME280;59485;43.542;-5.676;2023-05-12T05:15:08;101937.66;;;10.03;nan
71638;BME280;59485;43.542;-5.676;2023-05-12T05:17:35;102007.63;;;10.51;nan
71638;BME280;59485;43.542;-5.676;2023-05-12T05:20:02;101969.28;;;10.15;nan
71638;BME280;59485;43.542;-5.676;2023-05-12T05:22:28;101968.91;;;10.10;nan
71638;BME280;59485;43.542;-5.676;2023-05-12T05:24:53;102015.06;;;10.41;nan
71638;BME280;59485;43.542;-5.676;2023-05-12T05:27:19;102026.81;;;10.51;nan
71638;BME280;59485;43.542;-5.676;2023-05-12T05:29:44;102017.72;;;10.50;nan
71638;BME280;59485;43.542;-5.676;2023-05-12T05:32:10;102020.31;;;10.52;nan
71638;BME280;59485;43.542;-5.676;2023-05-12T05:34:36;101997.97;;;10.47;nan
71638;BME280;59485;43.542;-5.676;2023-05-12T05:37:01;102024.97;;;10.60;nan
71638;BME280;59485;43.542;-5.676;2023-05-12T05:39:27;102024.13;;;10.59;nan
71638;BME280;59485;43.542;-5.676;2023-05-12T05:41:55;102025.34;;;10.65;nan
71638;BME280;59485;43.542;-5.676;2023-05-12T05:44:23;102029.19;;;10.72;nan
71638;BME280;59485;43.542;-5.676;2023-05-12T05:46:49;102025.25;;;10.74;nan
71638;BME280;59485;43.542;-5.676;2023-05-12T05:49:15;102036.97;;;10.84;nan
71638;BME280;59485;43.542;-5.676;2023-05-12T05:51:40;102039.56;;;10.86;nan
71638;BME280;59485;43.542;-5.676;2023-05-12T05:54:06;102044.09;;;10.95;nan
71638;BME280;59485;43.542;-5.676;2023-05-12T05:56:31;102041.19;;;10.97;nan
71638;BME280;59485;43.542;-5.676;2023-05-12T05:58:57;102047.00;;;10.94;nan
71638;BME280;59485;43.542;-5.676;2023-05-12T06:01:27;102044.94;;;10.96;nan
71638;BME280;59485;43.542;-5.676;2023-05-12T06:03:53;102036.50;;;10.89;nan
71638;BME280;59485;43.542;-5.676;2023-05-12T06:06:18;102039.09;;;10.90;nan
71638;BME280;59485;43.542;-5.676;2023-05-12T06:08:44;102051.44;;;10.95;nan
71638;BME280;59485;43.542;-5.676;2023-05-12T06:11:10;102033.63;;;10.90;nan
71638;BME280;59485;43.542;-5.676;2023-05-12T06:13:39;102046.72;;;11.05;nan
71638;BME280;59485;43.542;-5.676;2023-05-12T06:16:04;102027.94;;;10.92;nan
71638;BME280;59485;43.542;-5.676;2023-05-12T06:18:30;102039.47;;;10.96;nan
71638;BME280;59485;43.542;-5.676;2023-05-12T06:20:58;102053.78;;;11.07;nan
71638;BME280;59485;43.542;-5.676;2023-05-12T06:23:27;102048.28;;;11.07;nan
71638;BME280;59485;43.542;-5.676;2023-05-12T06:25:55;102038.19;;;11.08;nan
71638;BME280;59485;43.542;-5.676;2023-05-12T06:28:20;102033.00;;;11.05;nan
71638;BME280;59485;43.542;-5.676;2023-05-12T06:30:46;102044.19;;;11.11;nan
71638;BME280;59485;43.542;-5.676;2023-05-12T06:33:12;102051.78;;;11.17;nan
71638;BME280;59485;43.542;-5.676;2023-05-12T06:35:37;102048.66;;;11.12;nan
71638;BME280;59485;43.542;-5.676;2023-05-12T06:38:03;102051.53;;;11.11;nan
71638;BME280;59485;43.542;-5.676;2023-05-12T06:40:28;102055.00;;;11.13;nan
71638;BME280;59485;43.542;-5.676;2023-05-12T06:42:54;102054.28;;;11.11;nan
71638;BME280;59485;43.542;-5.676;2023-05-12T06:45:19;102059.63;;;11.12;nan
71638;BME280;59485;43.542;-5.676;2023-05-12T06:47:45;102055.38;;;11.18;nan
71638;BME280;59485;43.542;-5.676;2023-05-12T06:50:10;102069.44;;;11.15;nan
71638;BME280;59485;43.542;-5.676;2023-05-12T06:52:36;102068.25;;;11.17;nan
71638;BME280;59485;43.542;-5.676;2023-05-12T06:55:01;102064.63;;;11.17;nan
71638;BME280;59485;43.542;-5.676;2023-05-12T06:57:31;102069.50;;;11.31;nan
71638;BME280;59485;43.542;-5.676;2023-05-12T06:59:56;102071.78;;;11.36;nan
71638;BME280;59485;43.542;-5.676;2023-05-12T07:02:22;102054.09;;;11.38;nan
71638;BME280;59485;43.542;-5.676;2023-05-12T07:04:47;102065.97;;;11.47;nan
71638;BME280;59485;43.542;-5.676;2023-05-12T07:07:13;102039.50;;;11.38;nan
71638;BME280;59485;43.542;-5.676;2023-05-12T07:09:38;102056.72;;;11.48;nan
71638;BME280;59485;43.542;-5.676;2023-05-12T07:12:06;102063.97;;;11.57;nan
71638;BME280;59485;43.542;-5.676;2023-05-12T07:14:31;102065.69;;;11.58;nan
71638;BME280;59485;43.542;-5.676;2023-05-12T07:16:57;102058.97;;;11.52;nan
71638;BME280;59485;43.542;-5.676;2023-05-12T07:19:22;102068.59;;;11.56;nan
71638;BME280;59485;43.542;-5.676;2023-05-12T07:21:48;102067.25;;;11.60;nan
71638;BME280;59485;43.542;-5.676;2023-05-12T07:24:13;102065.00;;;11.56;nan
71638;BME280;59485;43.542;-5.676;2023-05-12T07:26:39;102044.72;;;11.49;nan
71638;BME280;59485;43.542;-5.676;2023-05-12T07:29:05;102058.84;;;11.62;nan
71638;BME280;59485;43.542;-5.676;2023-05-12T07:31:31;102043.38;;;11.53;nan
71638;BME280;59485;43.542;-5.676;2023-05-12T07:33:57;102053.69;;;11.59;nan
71638;BME280;59485;43.542;-5.676;2023-05-12T07:36:23;102050.41;;;11.63;nan
71638;BME280;59485;43.542;-5.676;2023-05-12T07:38:48;102051.28;;;11.64;nan
71638;BME280;59485;43.542;-5.676;2023-05-12T07:41:14;102049.09;;;11.68;nan
71638;BME280;59485;43.542;-5.676;2023-05-12T07:43:39;102058.00;;;11.61;nan
71638;BME280;59485;43.542;-5.676;2023-05-12T07:46:05;102066.63;;;11.75;nan
71638;BME280;59485;43.542;-5.676;2023-05-12T07:48:30;102062.72;;;11.77;nan
71638;BME280;59485;43.542;-5.676;2023-05-12T07:50:56;102059.97;;;11.85;nan
71638;BME280;59485;43.542;-5.676;2023-05-12T07:53:21;102061.72;;;11.86;nan
71638;BME280;59485;43.542;-5.676;2023-05-12T07:55:47;102057.41;;;11.92;nan
71638;BME280;59485;43.542;-5.676;2023-05-12T07:58:12;102052.63;;;12.02;nan
71638;BME280;59485;43.542;-5.676;2023-05-12T08:00:38;102060.03;;;12.01;nan
71638;BME280;59485;43.542;-5.676;2023-05-12T08:03:04;102054.03;;;12.06;nan
71638;BME280;59485;43.542;-5.676;2023-05-12T08:05:32;102065.06;;;12.22;nan
71638;BME280;59485;43.542;-5.676;2023-05-12T08:08:00;102052.66;;;12.26;nan
71638;BME280;59485;43.542;-5.676;2023-05-12T08:10:25;102055.94;;;12.38;nan
71638;BME280;59485;43.542;-5.676;2023-05-12T08:12:53;102074.72;;;12.43;nan
71638;BME280;59485;43.542;-5.676;2023-05-12T08:15:19;102076.03;;;12.14;nan
71638;BME280;59485;43.542;-5.676;2023-05-12T08:17:45;102071.00;;;12.01;nan
71638;BME280;59485;43.542;-5.676;2023-05-12T08:20:11;102081.47;;;11.90;nan
71638;BME280;59485;43.542;-5.676;2023-05-12T08:22:37;102078.63;;;11.74;nan
71638;BME280;59485;43.542;-5.676;2023-05-12T08:25:04;102075.34;;;11.62;nan
71638;BME280;59485;43.542;-5.676;2023-05-12T08:27:30;102059.31;;;11.49;nan
71638;BME280;59485;43.542;-5.676;2023-05-12T08:29:55;102070.59;;;11.46;nan
71638;BME280;59485;43.542;-5.676;2023-05-12T08:32:21;102067.19;;;11.44;nan
71638;BME280;59485;43.542;-5.676;2023-05-12T08:34:47;102068.53;;;11.40;nan
71638;BME280;59485;43.542;-5.676;2023-05-12T08:37:12;102078.19;;;11.44;nan
71638;BME280;59485;43.542;-5.676;2023-05-12T08:39:38;102082.56;;;11.37;nan
71638;BME280;59485;43.542;-5.676;2023-05-12T08:44:50;102069.03;;;11.36;nan
71638;BME280;59485;43.542;-5.676;2023-05-12T08:47:19;102067.19;;;11.44;nan
71638;BME280;59485;43.542;-5.676;2023-05-12T08:49:50;102064.13;;;11.55;nan
71638;BME280;59485;43.542;-5.676;2023-05-12T08:52:16;102040.50;;;11.62;nan
71638;BME280;59485;43.542;-5.676;2023-05-12T08:54:46;102057.06;;;11.87;nan
71638;BME280;59485;43.542;-5.676;2023-05-12T08:57:13;102056.06;;;11.96;nan
71638;BME280;59485;43.542;-5.676;2023-05-12T08:59:42;102056.97;;;12.13;nan
71638;BME280;59485;43.542;-5.676;2023-05-12T09:02:08;102047.00;;;12.36;nan
71638;BME280;59485;43.542;-5.676;2023-05-12T09:04:34;102050.81;;;12.51;nan
71638;BME280;59485;43.542;-5.676;2023-05-12T09:07:03;102050.09;;;12.73;nan
71638;BME280;59485;43.542;-5.676;2023-05-12T09:09:30;102028.63;;;12.69;nan
71638;BME280;59485;43.542;-5.676;2023-05-12T09:12:00;102036.19;;;12.75;nan
71638;BME280;59485;43.542;-5.676;2023-05-12T09:14:28;102031.56;;;12.67;nan
71638;BME280;59485;43.542;-5.676;2023-05-12T09:17:01;102038.59;;;12.70;nan
71638;BME280;59485;43.542;-5.676;2023-05-12T09:19:27;102039.25;;;12.72;nan
71638;BME280;59485;43.542;-5.676;2023-05-12T09:21:53;102034.97;;;12.86;nan
71638;BME280;59485;43.542;-5.676;2023-05-12T09:24:19;102032.03;;;12.87;nan
71638;BME280;59485;43.542;-5.676;2023-05-12T09:26:49;102058.84;;;12.93;nan
71638;BME280;59485;43.542;-5.676;2023-05-12T09:29:15;102027.22;;;12.97;nan
71638;BME280;59485;43.542;-5.676;2023-05-12T09:31:54;102043.72;;;13.05;nan
71638;BME280;59485;43.542;-5.676;2023-05-12T09:34:35;102053.16;;;13.11;nan
71638;BME280;59485;43.542;-5.676;2023-05-12T09:37:04;102047.63;;;13.11;nan
71638;BME280;59485;43.542;-5.676;2023-05-12T09:39:31;102056.25;;;13.16;nan
71638;BME280;59485;43.542;-5.676;2023-05-12T09:41:57;102043.84;;;13.12;nan
71638;BME280;59485;43.542;-5.676;2023-05-12T09:44:24;102056.44;;;13.23;nan
71638;BME280;59485;43.542;-5.676;2023-05-12T09:46:50;102050.56;;;13.18;nan
71638;BME280;59485;43.542;-5.676;2023-05-12T09:49:21;102063.44;;;13.33;nan
71638;BME280;59485;43.542;-5.676;2023-05-12T09:51:57;102069.59;;;13.43;nan
71638;BME280;59485;43.542;-5.676;2023-05-12T09:54:27;102070.13;;;13.47;nan
71638;BME280;59485;43.542;-5.676;2023-05-12T09:56:57;102065.97;;;13.43;nan
71638;BME280;59485;43.542;-5.676;2023-05-12T09:59:24;102070.63;;;13.50;nan
71638;BME280;59485;43.542;-5.676;2023-05-12T10:01:55;102065.25;;;13.57;nan
71638;BME280;59485;43.542;-5.676;2023-05-12T10:04:23;102072.50;;;13.58;nan
71638;BME280;59485;43.542;-5.676;2023-05-12T10:06:50;102066.59;;;13.61;nan
71638;BME280;59485;43.542;-5.676;2023-05-12T10:09:23;102062.13;;;13.68;nan
71638;BME280;59485;43.542;-5.676;2023-05-12T10:11:50;102060.53;;;13.74;nan
71638;BME280;59485;43.542;-5.676;2023-05-12T10:14:17;102057.44;;;13.77;nan
71638;BME280;59485;43.542;-5.676;2023-05-12T10:16:45;102058.03;;;13.87;nan
71638;BME280;59485;43.542;-5.676;2023-05-12T10:19:12;102054.19;;;13.96;nan
71638;BME280;59485;43.542;-5.676;2023-05-12T10:21:39;102054.69;;;14.00;nan
71638;BME280;59485;43.542;-5.676;2023-05-12T10:24:07;102063.44;;;14.11;nan
71638;BME280;59485;43.542;-5.676;2023-05-12T10:26:32;102064.47;;;14.10;nan
71638;BME280;59485;43.542;-5.676;2023-05-12T10:29:00;102054.97;;;14.13;nan
71638;BME280;59485;43.542;-5.676;2023-05-12T10:31:26;102049.75;;;14.18;nan
71638;BME280;59485;43.542;-5.676;2023-05-12T10:33:59;102058.78;;;14.35;nan
71638;BME280;59485;43.542;-5.676;2023-05-12T10:36:25;102055.72;;;14.30;nan
71638;BME280;59485;43.542;-5.676;2023-05-12T10:38:51;102064.00;;;14.52;nan
71638;BME280;59485;43.542;-5.676;2023-05-12T10:41:29;102074.00;;;14.53;nan
71638;BME280;59485;43.542;-5.676;2023-05-12T10:43:55;102058.50;;;14.52;nan
71638;BME280;59485;43.542;-5.676;2023-05-12T10:46:21;102047.88;;;14.64;nan
71638;BME280;59485;43.542;-5.676;2023-05-12T10:48:56;102053.88;;;14.68;nan
71638;BME280;59485;43.542;-5.676;2023-05-12T10:51:24;102038.22;;;14.83;nan
71638;BME280;59485;43.542;-5.676;2023-05-12T10:54:01;102065.91;;;14.52;nan
71638;BME280;59485;43.542;-5.676;2023-05-12T10:59:20;102066.88;;;14.36;nan
71638;BME280;59485;43.542;-5.676;2023-05-12T11:02:12;102065.50;;;14.32;nan
71638;BME280;59485;43.542;-5.676;2023-05-12T11:04:46;102082.50;;;14.21;nan
71638;BME280;59485;43.542;-5.676;2023-05-12T11:07:13;102058.66;;;13.97;nan
71638;BME280;59485;43.542;-5.676;2023-05-12T11:09:41;102085.31;;;14.05;nan
71638;BME280;59485;43.542;-5.676;2023-05-12T11:12:08;102082.44;;;13.98;nan
71638;BME280;59485;43.542;-5.676;2023-05-12T11:14:34;102083.75;;;14.10;nan
71638;BME280;59485;43.542;-5.676;2023-05-12T11:17:00;102080.50;;;14.07;nan
71638;BME280;59485;43.542;-5.676;2023-05-12T11:19:26;102074.75;;;14.16;nan
71638;BME280;59485;43.542;-5.676;2023-05-12T11:21:53;102067.00;;;14.20;nan
71638;BME280;59485;43.542;-5.676;2023-05-12T11:24:20;102074.16;;;14.29;nan
71638;BME280;59485;43.542;-5.676;2023-05-12T11:26:46;102073.41;;;14.43;nan
71638;BME280;59485;43.542;-5.676;2023-05-12T11:29:17;102047.16;;;14.47;nan
71638;BME280;59485;43.542;-5.676;2023-05-12T11:31:46;102064.72;;;14.69;nan
71638;BME280;59485;43.542;-5.676;2023-05-12T11:34:12;102055.59;;;14.69;nan
71638;BME280;59485;43.542;-5.676;2023-05-12T11:36:42;102053.75;;;14.84;nan
71638;BME280;59485;43.542;-5.676;2023-05-12T11:39:24;102059.72;;;14.73;nan
71638;BME280;59485;43.542;-5.676;2023-05-12T11:41:50;102061.31;;;14.67;nan
71638;BME280;59485;43.542;-5.676;2023-05-12T11:44:17;102058.31;;;14.54;nan
71638;BME280;59485;43.542;-5.676;2023-05-12T11:49:47;102053.03;;;14.67;nan
71638;BME280;59485;43.542;-5.676;2023-05-12T11:52:13;102056.44;;;14.69;nan
71638;BME280;59485;43.542;-5.676;2023-05-12T11:54:49;102072.03;;;14.85;nan
71638;BME280;59485;43.542;-5.676;2023-05-12T12:00:07;102073.31;;;14.51;nan
71638;BME280;59485;43.542;-5.676;2023-05-12T12:02:36;102074.00;;;14.31;nan
71638;BME280;59485;43.542;-5.676;2023-05-12T12:05:04;102068.53;;;14.22;nan
71638;BME280;59485;43.542;-5.676;2023-05-12T12:07:31;102070.03;;;14.25;nan
71638;BME280;59485;43.542;-5.676;2023-05-12T12:09:57;102076.59;;;14.24;nan
71638;BME280;59485;43.542;-5.676;2023-05-12T12:12:23;102072.06;;;14.39;nan
71638;BME280;59485;43.542;-5.676;2023-05-12T12:14:48;102064.00;;;14.30;nan
71638;BME280;59485;43.542;-5.676;2023-05-12T12:17:14;102068.00;;;14.50;nan
71638;BME280;59485;43.542;-5.676;2023-05-12T12:19:40;102075.38;;;14.57;nan
71638;BME280;59485;43.542;-5.676;2023-05-12T12:22:05;102057.69;;;14.67;nan
71638;BME280;59485;43.542;-5.676;2023-05-12T12:24:31;102073.06;;;14.84;nan
71638;BME280;59485;43.542;-5.676;2023-05-12T12:26:57;102066.28;;;14.86;nan
71638;BME280;59485;43.542;-5.676;2023-05-12T12:29:22;102062.22;;;14.82;nan
71638;BME280;59485;43.542;-5.676;2023-05-12T12:31:50;102066.72;;;14.98;nan
71638;BME280;59485;43.542;-5.676;2023-05-12T12:34:15;102068.72;;;15.04;nan
71638;BME280;59485;43.542;-5.676;2023-05-12T12:36:41;102070.25;;;15.21;nan
71638;BME280;59485;43.542;-5.676;2023-05-12T12:39:06;102079.69;;;15.42;nan
71638;BME280;59485;43.542;-5.676;2023-05-12T12:41:32;102077.97;;;15.11;nan
71638;BME280;59485;43.542;-5.676;2023-05-12T12:43:57;102082.91;;;15.01;nan
71638;BME280;59485;43.542;-5.676;2023-05-12T12:46:23;102073.28;;;14.97;nan
71638;BME280;59485;43.542;-5.676;2023-05-12T12:48:49;102087.63;;;14.55;nan
71638;BME280;59485;43.542;-5.676;2023-05-12T12:51:14;102086.59;;;14.56;nan
71638;BME280;59485;43.542;-5.676;2023-05-12T12:53:40;102081.75;;;14.58;nan
71638;BME280;59485;43.542;-5.676;2023-05-12T12:56:07;102072.41;;;14.59;nan
71638;BME280;59485;43.542;-5.676;2023-05-12T12:58:33;102078.50;;;14.54;nan
71638;BME280;59485;43.542;-5.676;2023-05-12T13:00:58;102078.31;;;14.56;nan
71638;BME280;59485;43.542;-5.676;2023-05-12T13:03:24;102066.53;;;14.39;nan
71638;BME280;59485;43.542;-5.676;2023-05-12T13:05:50;102079.97;;;14.65;nan
71638;BME280;59485;43.542;-5.676;2023-05-12T13:08:15;102064.25;;;14.66;nan
71638;BME280;59485;43.542;-5.676;2023-05-12T13:10:42;102074.00;;;14.53;nan